This is the latest recevied weather packets stored in our database for station/object SP2NBH-2. If no packets are shown the sender has not sent any weather packets the latest 10 day(s).
| Time | Temp. | Humidity | Pressure | Rain* | Wind** | Luminosity | Snow |
|---|---|---|---|---|---|---|---|
| 1777811336 | 30° C | 15% | 1012.3 hPa | - | - | - | - |
| 1777811255 | 30° C | 15% | 1012.3 hPa | - | - | - | - |
| 1777810402 | 30.56° C | 14% | 1012.6 hPa | - | - | - | - |
| 1777810355 | 30.56° C | 14% | 1012.6 hPa | - | - | - | - |
| 1777809504 | 30° C | 15% | 1012.7 hPa | - | - | - | - |
| 1777809455 | 30° C | 15% | 1012.7 hPa | - | - | - | - |
| 1777808555 | 30.56° C | 16% | 1012.9 hPa | - | - | - | - |
| 1777807654 | 30.56° C | 14% | 1013 hPa | - | - | - | - |
| 1777806754 | 29.44° C | 17% | 1013.2 hPa | - | - | - | - |
| 1777805854 | 28.33° C | 17% | 1013.2 hPa | - | - | - | - |
| 1777804954 | 28.89° C | 16% | 1013.5 hPa | - | - | - | - |
| 1777804054 | 27.78° C | 17% | 1013.5 hPa | - | - | - | - |
| 1777803155 | 28.33° C | 17% | 1013.6 hPa | - | - | - | - |
| 1777802254 | 27.22° C | 19% | 1013.9 hPa | - | - | - | - |
| 1777801403 | 27.22° C | 19% | 1013.9 hPa | - | - | - | - |
| 1777801354 | 27.22° C | 19% | 1013.9 hPa | - | - | - | - |
| 1777800454 | 26.67° C | 21% | 1014.1 hPa | - | - | - | - |
| 1777798782 | 25.56° C | 24% | 1014.5 hPa | - | - | - | - |
| 1777798748 | 25.56° C | 24% | 1014.5 hPa | - | - | - | - |
| 1777797882 | 25° C | 28% | 1014.6 hPa | - | - | - | - |
| 1777797848 | 25° C | 28% | 1014.6 hPa | - | - | - | - |
| 1777796948 | 24.44° C | 28% | 1014.7 hPa | - | - | - | - |
| 1777796048 | 23.89° C | 30% | 1014.7 hPa | - | - | - | - |
| 1777795148 | 22.78° C | 32% | 1014.8 hPa | - | - | - | - |
| 1777794247 | 22.22° C | 33% | 1015 hPa | - | - | - | - |
* Rain since midnight (hover to see other rain measurements)
** Current wind speed in m/s (hover to see current wind gust speed)